Terminal Aerodrome Forecast
Issued by NWS

Home | Current Version | Previous Version | Text Only | Print | Product List | Glossary Off
Versions: 1 2 3 4 5 6 7 8 9 10 11 12 13 14 15 16 17 18 19 20 21 22 23 24 25 26 27 28 29 30

000
FTUS43 KBIS 031125
TAFMOT
TAF
KMOT 031125Z 0312/0412 10006KT 2SM BR SKC
      TEMPO 0312/0313 1/4SM FG SCT005
     FM031500 14010KT P6SM SCT030
     FM031800 16013KT P6SM FEW120
     FM040300 VRB05KT P6SM SCT080
     FM040800 34008KT P6SM VCSH SCT050 BKN080=

USA.gov is the U.S. government's official web portal to all federal, state and local government web resources and services.